Time;durP1;ratioP1;P1;durP2;ratioP2;P2;SDS_P1;SDS_P2;PMS_P1;PMS_P2;Temp;Humidity;BMP_temperature;BMP_pressure;BME280_temperature;BME280_humidity;BME280_pressure;Samples;Min_cycle;Max_cycle;Signal;HPM_P1;HPM_P2
2024/01/04 00:00:03;;;;;;;2.95;1.80;;;;;;;;;;6184860;23;20021;-70
2024/01/04 00:02:31;;;;;;;2.33;1.90;;;;;;;;;;6184973;23;20450;-70
2024/01/04 00:04:59;;;;;;;2.50;1.90;;;;;;;;;;6185044;23;20017;-70
2024/01/04 00:07:27;;;;;;;3.65;2.20;;;;;;;;;;6183654;23;20013;-70
2024/01/04 00:09:54;;;;;;;2.63;1.98;;;;;;;;;;6185078;23;20037;-69
2024/01/04 00:12:22;;;;;;;3.47;2.10;;;;;;;;;;6185007;23;20031;-70
2024/01/04 00:14:50;;;;;;;3.70;2.47;;;;;;;;;;6185274;23;20048;-69
2024/01/04 00:17:17;;;;;;;2.83;2.20;;;;;;;;;;6184901;23;20014;-69
2024/01/04 00:19:45;;;;;;;3.78;2.55;;;;;;;;;;6184806;23;20023;-69
2024/01/04 00:22:12;;;;;;;3.20;2.33;;;;;;;;;;6185024;23;20085;-69
2024/01/04 00:24:40;;;;;;;3.33;2.28;;;;;;;;;;6185065;23;20348;-69
2024/01/04 00:27:07;;;;;;;4.82;2.60;;;;;;;;;;6185140;23;20351;-69
2024/01/04 00:29:35;;;;;;;3.95;2.67;;;;;;;;;;6183277;23;20013;-69
2024/01/04 00:32:02;;;;;;;3.30;2.20;;;;;;;;;;6159122;23;20020;-70
2024/01/04 00:34:30;;;;;;;3.70;2.67;;;;;;;;;;6183088;23;20120;-70
2024/01/04 00:36:58;;;;;;;3.30;2.30;;;;;;;;;;6183332;23;20344;-69
2024/01/04 00:39:26;;;;;;;3.08;2.30;;;;;;;;;;6183345;23;20025;-70
2024/01/04 00:41:54;;;;;;;4.45;2.42;;;;;;;;;;6184733;23;20017;-70
2024/01/04 00:44:21;;;;;;;3.58;2.60;;;;;;;;;;6183316;23;20009;-70
2024/01/04 00:46:49;;;;;;;3.60;2.45;;;;;;;;;;6183693;23;20031;-70
2024/01/04 00:49:16;;;;;;;4.78;2.90;;;;;;;;;;6183127;23;20021;-69
2024/01/04 00:51:44;;;;;;;3.60;2.90;;;;;;;;;;6158695;23;20013;-69
2024/01/04 00:54:12;;;;;;;2.80;2.20;;;;;;;;;;6183386;23;20025;-69
2024/01/04 00:56:40;;;;;;;2.85;2.20;;;;;;;;;;6183651;23;20444;-69
2024/01/04 00:59:08;;;;;;;3.40;2.50;;;;;;;;;;6184212;23;20031;-69
2024/01/04 01:01:35;;;;;;;4.30;2.50;;;;;;;;;;6185213;23;20498;-69
2024/01/04 01:04:03;;;;;;;3.08;2.30;;;;;;;;;;6185636;23;20013;-70
2024/01/04 01:06:31;;;;;;;3.35;2.30;;;;;;;;;;6185219;23;20354;-69
2024/01/04 01:08:58;;;;;;;3.72;2.38;;;;;;;;;;6185148;23;20017;-69
2024/01/04 01:11:26;;;;;;;3.45;2.17;;;;;;;;;;6185206;23;20017;-69
2024/01/04 01:13:53;;;;;;;4.32;2.40;;;;;;;;;;6186736;23;20375;-69
2024/01/04 01:16:21;;;;;;;3.42;2.40;;;;;;;;;;6184892;23;20024;-69
2024/01/04 01:18:48;;;;;;;4.35;2.72;;;;;;;;;;6186748;23;20013;-69
2024/01/04 01:21:16;;;;;;;5.10;2.92;;;;;;;;;;6186420;23;20013;-69
2024/01/04 01:23:44;;;;;;;5.22;3.10;;;;;;;;;;6186596;23;20021;-69
2024/01/04 01:26:11;;;;;;;3.88;2.70;;;;;;;;;;6184829;23;20021;-69
2024/01/04 01:28:39;;;;;;;3.65;2.70;;;;;;;;;;6186646;23;20325;-69
2024/01/04 01:31:06;;;;;;;5.25;2.95;;;;;;;;;;6184758;23;20021;-69
2024/01/04 01:33:34;;;;;;;3.75;2.70;;;;;;;;;;6184806;23;20118;-69
2024/01/04 01:36:02;;;;;;;4.10;2.30;;;;;;;;;;6186455;23;20024;-69
2024/01/04 01:38:31;;;;;;;3.58;2.47;;;;;;;;;;6186428;23;20027;-69
2024/01/04 01:40:58;;;;;;;3.85;2.33;;;;;;;;;;6186407;23;20023;-69
2024/01/04 01:43:30;;;;;;;3.50;2.20;;;;;;;;;;6186405;23;20067;-69
2024/01/04 01:45:58;;;;;;;3.30;2.20;;;;;;;;;;6159997;23;20051;-69
2024/01/04 01:48:26;;;;;;;4.07;2.35;;;;;;;;;;6184699;23;20021;-69
2024/01/04 01:50:53;;;;;;;4.45;2.45;;;;;;;;;;6184639;23;20028;-69
2024/01/04 01:53:22;;;;;;;3.58;2.38;;;;;;;;;;6185014;23;20017;-69
2024/01/04 01:55:50;;;;;;;3.95;2.42;;;;;;;;;;6184817;23;20447;-69
2024/01/04 01:58:17;;;;;;;3.97;2.40;;;;;;;;;;6160158;23;20055;-69
2024/01/04 02:00:45;;;;;;;3.67;2.00;;;;;;;;;;6159651;23;20041;-69
2024/01/04 02:03:13;;;;;;;3.05;2.28;;;;;;;;;;6184622;23;20096;-68
2024/01/04 02:05:41;;;;;;;2.97;2.20;;;;;;;;;;6184617;23;20028;-69
2024/01/04 02:08:08;;;;;;;4.43;2.40;;;;;;;;;;6186670;23;20403;-68
2024/01/04 02:10:36;;;;;;;3.40;2.28;;;;;;;;;;6184201;23;20326;-69
2024/01/04 02:13:03;;;;;;;3.28;2.10;;;;;;;;;;6185842;23;20083;-69
2024/01/04 02:15:32;;;;;;;4.47;2.42;;;;;;;;;;6184311;23;20321;-69
2024/01/04 02:17:59;;;;;;;4.53;2.30;;;;;;;;;;6184442;23;20478;-69
2024/01/04 02:20:27;;;;;;;3.92;2.28;;;;;;;;;;6186028;23;20076;-69
2024/01/04 02:22:55;;;;;;;5.75;2.45;;;;;;;;;;6186355;23;20021;-69
2024/01/04 02:25:22;;;;;;;3.50;2.28;;;;;;;;;;6184518;23;20425;-69
2024/01/04 02:27:50;;;;;;;3.65;2.40;;;;;;;;;;6184489;23;20076;-70
2024/01/04 02:30:18;;;;;;;3.13;2.20;;;;;;;;;;6184706;23;20017;-69
2024/01/04 02:32:46;;;;;;;2.80;2.08;;;;;;;;;;6159873;23;20048;-70
2024/01/04 02:35:14;;;;;;;3.22;2.30;;;;;;;;;;6184298;23;20391;-69
2024/01/04 02:37:42;;;;;;;3.72;2.20;;;;;;;;;;6185835;23;20017;-69
2024/01/04 02:40:10;;;;;;;4.32;2.35;;;;;;;;;;6185991;23;20013;-70
2024/01/04 02:42:37;;;;;;;3.17;2.20;;;;;;;;;;6159772;23;20043;-70
2024/01/04 02:45:05;;;;;;;3.10;2.30;;;;;;;;;;6184371;23;20028;-70
2024/01/04 02:47:32;;;;;;;3.03;2.42;;;;;;;;;;6184472;23;20025;-69
2024/01/04 02:50:00;;;;;;;3.58;2.50;;;;;;;;;;6184220;23;20424;-69
2024/01/04 02:52:28;;;;;;;3.90;2.35;;;;;;;;;;6185724;23;20075;-69
2024/01/04 02:54:55;;;;;;;3.33;2.20;;;;;;;;;;6184232;23;20024;-69
2024/01/04 02:57:23;;;;;;;3.47;2.40;;;;;;;;;;6209242;23;20023;-69
2024/01/04 02:59:50;;;;;;;3.60;2.28;;;;;;;;;;6184157;23;20507;-69
2024/01/04 03:02:18;;;;;;;3.08;2.28;;;;;;;;;;6185709;23;20045;-71
2024/01/04 03:04:45;;;;;;;2.83;2.40;;;;;;;;;;6184048;23;20021;-70
2024/01/04 03:07:13;;;;;;;4.35;2.20;;;;;;;;;;6185604;23;20092;-70
2024/01/04 03:09:40;;;;;;;4.35;2.30;;;;;;;;;;6185771;23;20091;-69
2024/01/04 03:12:09;;;;;;;3.20;2.50;;;;;;;;;;6185551;23;20020;-69
2024/01/04 03:14:37;;;;;;;5.05;3.17;;;;;;;;;;6184020;23;20044;-70
2024/01/04 03:17:04;;;;;;;3.80;2.58;;;;;;;;;;6185418;23;20021;-70
2024/01/04 03:19:32;;;;;;;3.53;2.80;;;;;;;;;;6184048;23;20017;-70
2024/01/04 03:22:00;;;;;;;4.55;2.70;;;;;;;;;;6185320;23;20455;-70
2024/01/04 03:24:27;;;;;;;3.72;2.78;;;;;;;;;;6185806;23;20024;-70
2024/01/04 03:26:55;;;;;;;3.97;2.50;;;;;;;;;;6183759;23;20313;-70
2024/01/04 03:29:22;;;;;;;4.18;2.78;;;;;;;;;;6185644;23;20025;-70
2024/01/04 03:31:50;;;;;;;3.70;2.70;;;;;;;;;;6185834;23;20399;-70
2024/01/04 03:34:17;;;;;;;4.95;3.08;;;;;;;;;;6185481;23;20021;-70
2024/01/04 03:36:45;;;;;;;3.60;2.60;;;;;;;;;;6185265;23;20059;-70
2024/01/04 03:39:12;;;;;;;5.38;3.15;;;;;;;;;;6185246;23;20021;-70
2024/01/04 03:41:40;;;;;;;4.53;2.85;;;;;;;;;;6185100;23;20048;-70
2024/01/04 03:44:08;;;;;;;6.13;3.60;;;;;;;;;;6185159;23;20013;-70
2024/01/04 03:46:35;;;;;;;4.47;2.75;;;;;;;;;;6185102;23;20021;-70
2024/01/04 03:49:03;;;;;;;5.53;3.17;;;;;;;;;;6184906;23;20017;-70
2024/01/04 03:51:31;;;;;;;4.82;3.30;;;;;;;;;;6183657;23;20052;-70
2024/01/04 03:53:59;;;;;;;4.75;3.03;;;;;;;;;;6185214;23;20017;-69
2024/01/04 03:56:27;;;;;;;5.55;3.05;;;;;;;;;;6184979;23;20028;-69
2024/01/04 03:58:55;;;;;;;5.15;3.05;;;;;;;;;;6185255;23;20440;-70
2024/01/04 04:01:22;;;;;;;5.38;2.90;;;;;;;;;;6185001;23;20017;-70
2024/01/04 04:03:50;;;;;;;4.47;2.92;;;;;;;;;;6185219;23;20027;-69
2024/01/04 04:06:20;;;;;;;4.00;2.95;;;;;;;;;;6183541;23;20044;-69
2024/01/04 04:08:48;;;;;;;5.20;3.28;;;;;;;;;;6185202;23;20016;-67
2024/01/04 04:11:19;;;;;;;4.88;3.60;;;;;;;;;;6185252;23;20023;-68
2024/01/04 04:13:46;;;;;;;4.88;3.20;;;;;;;;;;6185077;23;20020;-68
2024/01/04 04:16:14;;;;;;;5.78;3.50;;;;;;;;;;6184970;23;20043;-68
2024/01/04 04:18:42;;;;;;;5.50;3.50;;;;;;;;;;6184991;23;20021;-68
2024/01/04 04:21:17;;;;;;;5.88;3.70;;;;;;;;;;6184840;23;20017;-69
2024/01/04 04:23:49;;;;;;;;;;;;;;;;;;6185512;23;20461;-68
2024/01/04 04:26:18;;;;;;;7.43;3.47;;;;;;;;;;6184665;23;20338;-68
2024/01/04 04:28:46;;;;;;;5.43;3.40;;;;;;;;;;6185047;23;20041;-68
2024/01/04 04:31:14;;;;;;;6.25;3.75;;;;;;;;;;6184818;23;20013;-69
2024/01/04 04:33:44;;;;;;;5.53;3.80;;;;;;;;;;6184698;23;20043;-69
2024/01/04 04:36:11;;;;;;;5.28;3.40;;;;;;;;;;6184936;23;20017;-69
2024/01/04 04:38:40;;;;;;;4.05;3.25;;;;;;;;;;6183321;23;20436;-69
2024/01/04 04:41:08;;;;;;;5.20;3.40;;;;;;;;;;6184744;23;20084;-69
2024/01/04 04:43:36;;;;;;;4.40;3.38;;;;;;;;;;6184777;23;20055;-69
2024/01/04 04:46:09;;;;;;;5.18;3.55;;;;;;;;;;6185442;23;20440;-69
2024/01/04 04:48:38;;;;;;;5.82;3.72;;;;;;;;;;6185061;23;20032;-69
2024/01/04 04:51:05;;;;;;;4.93;3.33;;;;;;;;;;6184491;23;20439;-69
2024/01/04 04:53:33;;;;;;;4.65;3.50;;;;;;;;;;6184341;23;20024;-69
2024/01/04 04:56:01;;;;;;;6.05;3.85;;;;;;;;;;6184937;23;20013;-69
2024/01/04 04:58:31;;;;;;;7.05;4.07;;;;;;;;;;6184768;23;20028;-68
2024/01/04 05:00:59;;;;;;;7.00;3.72;;;;;;;;;;6184748;23;20039;-67
2024/01/04 05:03:27;;;;;;;4.60;3.50;;;;;;;;;;6184672;23;20016;-67
2024/01/04 05:05:54;;;;;;;5.72;3.53;;;;;;;;;;6184738;23;20013;-67
2024/01/04 05:08:23;;;;;;;6.28;3.60;;;;;;;;;;6184591;23;20048;-67
2024/01/04 05:10:50;;;;;;;5.55;3.97;;;;;;;;;;6183327;23;20328;-68
2024/01/04 05:13:18;;;;;;;6.78;4.00;;;;;;;;;;6185076;23;20013;-68
2024/01/04 05:15:46;;;;;;;6.05;3.80;;;;;;;;;;6184736;23;20024;-68
2024/01/04 05:18:13;;;;;;;7.93;4.35;;;;;;;;;;6184729;23;20079;-68
2024/01/04 05:20:41;;;;;;;5.45;3.85;;;;;;;;;;6184835;23;20025;-67
2024/01/04 05:23:08;;;;;;;6.18;4.13;;;;;;;;;;6184899;23;20104;-67
2024/01/04 05:25:36;;;;;;;6.75;4.05;;;;;;;;;;6184631;23;20013;-67
2024/01/04 05:28:08;;;;;;;8.00;4.65;;;;;;;;;;6184595;23;20017;-67
2024/01/04 05:30:35;;;;;;;7.75;5.38;;;;;;;;;;6184747;23;20043;-67
2024/01/04 05:33:03;;;;;;;9.77;6.07;;;;;;;;;;6184854;23;20470;-67
2024/01/04 05:35:31;;;;;;;7.47;5.18;;;;;;;;;;6184564;23;20013;-67
2024/01/04 05:37:59;;;;;;;8.10;4.70;;;;;;;;;;6183335;23;20075;-68
2024/01/04 05:40:26;;;;;;;6.65;4.65;;;;;;;;;;6184520;23;20017;-68
2024/01/04 05:42:57;;;;;;;7.32;4.45;;;;;;;;;;6184524;23;20025;-68
2024/01/04 05:45:25;;;;;;;9.77;4.30;;;;;;;;;;6184763;23;20017;-68
2024/01/04 05:47:53;;;;;;;6.45;4.00;;;;;;;;;;6186414;23;20028;-69
2024/01/04 05:50:20;;;;;;;5.70;3.88;;;;;;;;;;6186375;23;20068;-69
2024/01/04 05:52:48;;;;;;;8.13;4.90;;;;;;;;;;6186185;23;20013;-67
2024/01/04 05:55:15;;;;;;;14.63;8.65;;;;;;;;;;6185960;23;20013;-70
2024/01/04 05:57:43;;;;;;;14.70;8.82;;;;;;;;;;6186294;23;20044;-68
2024/01/04 06:00:11;;;;;;;22.25;16.05;;;;;;;;;;6185770;23;20013;-67
2024/01/04 06:02:43;;;;;;;23.27;16.30;;;;;;;;;;6183535;23;20079;-68
2024/01/04 06:05:10;;;;;;;19.85;15.90;;;;;;;;;;6186350;23;20044;-67
2024/01/04 06:07:38;;;;;;;21.17;15.10;;;;;;;;;;6186488;23;20048;-67
2024/01/04 06:10:06;;;;;;;22.23;16.08;;;;;;;;;;6186117;23;20017;-68
2024/01/04 06:12:33;;;;;;;12.95;9.38;;;;;;;;;;6186410;23;20079;-68
2024/01/04 06:15:03;;;;;;;15.23;10.10;;;;;;;;;;6186053;23;20025;-67
2024/01/04 06:17:31;;;;;;;15.63;11.65;;;;;;;;;;6186223;23;20027;-68
2024/01/04 06:19:58;;;;;;;18.80;14.30;;;;;;;;;;6186258;23;20095;-68
2024/01/04 06:22:26;;;;;;;19.67;14.65;;;;;;;;;;6185966;23;20027;-67
2024/01/04 06:24:53;;;;;;;18.05;14.02;;;;;;;;;;6185944;23;20024;-67
2024/01/04 06:27:21;;;;;;;14.98;11.18;;;;;;;;;;6185940;23;20021;-68
2024/01/04 06:29:49;;;;;;;15.00;11.23;;;;;;;;;;6186041;23;20013;-67
2024/01/04 06:32:16;;;;;;;17.55;11.25;;;;;;;;;;6185914;23;20084;-68
2024/01/04 06:34:44;;;;;;;14.40;10.48;;;;;;;;;;6185891;23;20044;-67
2024/01/04 06:37:13;;;;;;;16.33;10.80;;;;;;;;;;6185973;23;20017;-68
2024/01/04 06:39:40;;;;;;;14.70;10.90;;;;;;;;;;6184531;23;20347;-68
2024/01/04 06:42:08;;;;;;;16.00;10.95;;;;;;;;;;6185873;23;20025;-67
2024/01/04 06:44:36;;;;;;;14.30;9.73;;;;;;;;;;6185817;23;20067;-68
2024/01/04 06:47:14;;;;;;;14.98;9.95;;;;;;;;;;6186068;23;20025;-68
2024/01/04 06:49:42;;;;;;;15.70;9.80;;;;;;;;;;6185937;23;20017;-67
2024/01/04 06:52:11;;;;;;;15.07;8.40;;;;;;;;;;6185807;23;20344;-68
2024/01/04 06:54:38;;;;;;;11.75;8.05;;;;;;;;;;6185679;23;20088;-67
2024/01/04 06:57:06;;;;;;;13.52;8.38;;;;;;;;;;6185553;23;20021;-68
2024/01/04 06:59:35;;;;;;;14.98;8.50;;;;;;;;;;6184252;23;20543;-68
2024/01/04 07:02:06;;;;;;;14.85;7.63;;;;;;;;;;6185620;23;20017;-68
2024/01/04 07:04:34;;;;;;;14.18;8.43;;;;;;;;;;6185909;23;20027;-68
2024/01/04 07:07:01;;;;;;;13.00;7.97;;;;;;;;;;6185776;23;20104;-68
2024/01/04 07:09:29;;;;;;;11.15;7.55;;;;;;;;;;6185683;23;20021;-68
2024/01/04 07:11:57;;;;;;;9.75;6.22;;;;;;;;;;6185836;23;20021;-68
2024/01/04 07:14:25;;;;;;;10.68;5.82;;;;;;;;;;6185470;23;20013;-68
2024/01/04 07:16:52;;;;;;;11.23;6.70;;;;;;;;;;6185513;23;20021;-68
2024/01/04 07:19:22;;;;;;;9.65;4.65;;;;;;;;;;6185512;23;20016;-68
2024/01/04 07:21:50;;;;;;;16.65;9.07;;;;;;;;;;6183745;23;20056;-68
2024/01/04 07:24:17;;;;;;;22.92;12.18;;;;;;;;;;6185354;23;20055;-68
2024/01/04 07:26:45;;;;;;;21.83;12.38;;;;;;;;;;6185619;23;20049;-68
2024/01/04 07:29:13;;;;;;;24.65;13.38;;;;;;;;;;6185547;23;20061;-68
2024/01/04 07:31:41;;;;;;;20.00;11.75;;;;;;;;;;6185663;23;20017;-68
2024/01/04 07:34:08;;;;;;;18.23;10.85;;;;;;;;;;6185604;23;20024;-68
2024/01/04 07:36:36;;;;;;;18.52;10.43;;;;;;;;;;6185484;23;20013;-68
2024/01/04 07:39:04;;;;;;;22.30;10.85;;;;;;;;;;6185552;23;20057;-68
2024/01/04 07:41:31;;;;;;;20.13;9.80;;;;;;;;;;6184002;23;20013;-68
2024/01/04 07:44:02;;;;;;;18.58;8.93;;;;;;;;;;6185131;23;20017;-68
2024/01/04 07:46:30;;;;;;;20.05;11.77;;;;;;;;;;6185148;23;20013;-68
2024/01/04 07:48:58;;;;;;;17.65;9.40;;;;;;;;;;6185100;23;20028;-68
2024/01/04 07:51:27;;;;;;;13.50;8.82;;;;;;;;;;6185033;23;20032;-68
2024/01/04 07:53:54;;;;;;;16.95;9.55;;;;;;;;;;6184917;23;20047;-68
2024/01/04 07:56:22;;;;;;;18.08;10.70;;;;;;;;;;6185079;23;20021;-68
2024/01/04 07:58:49;;;;;;;17.13;10.95;;;;;;;;;;6184967;23;20024;-68
2024/01/04 08:01:17;;;;;;;22.80;12.27;;;;;;;;;;6185045;23;20021;-68
2024/01/04 08:03:44;;;;;;;21.00;12.38;;;;;;;;;;6183379;23;20021;-68
2024/01/04 08:06:12;;;;;;;20.90;11.80;;;;;;;;;;6184888;23;20340;-67
2024/01/04 08:08:40;;;;;;;14.90;7.60;;;;;;;;;;6184794;23;20067;-67
2024/01/04 08:11:08;;;;;;;15.25;7.28;;;;;;;;;;6185133;23;20028;-68
2024/01/04 08:13:35;;;;;;;11.30;6.20;;;;;;;;;;6185119;23;20072;-67
2024/01/04 08:16:03;;;;;;;12.02;5.97;;;;;;;;;;6185326;23;20017;-67
2024/01/04 08:18:31;;;;;;;9.63;4.82;;;;;;;;;;6184904;23;20013;-67
2024/01/04 08:21:01;;;;;;;14.65;4.80;;;;;;;;;;6184987;23;20013;-67
2024/01/04 08:23:33;;;;;;;10.55;4.50;;;;;;;;;;6183222;23;20096;-67
2024/01/04 08:26:04;;;;;;;12.18;7.78;;;;;;;;;;6184976;23;20028;-68
2024/01/04 08:28:31;;;;;;;14.63;6.63;;;;;;;;;;6184985;23;20072;-67
2024/01/04 08:30:59;;;;;;;11.38;5.15;;;;;;;;;;6184900;23;20017;-67
2024/01/04 08:33:32;;;;;;;12.27;6.15;;;;;;;;;;6184827;23;20079;-67
2024/01/04 08:36:00;;;;;;;11.35;6.60;;;;;;;;;;6184975;23;20321;-67
2024/01/04 08:38:27;;;;;;;12.02;6.88;;;;;;;;;;6185141;23;20028;-67
2024/01/04 08:40:55;;;;;;;11.88;7.07;;;;;;;;;;6184765;23;20458;-68
2024/01/04 08:43:22;;;;;;;11.50;6.55;;;;;;;;;;6184660;23;20021;-67
2024/01/04 08:45:50;;;;;;;7.85;4.28;;;;;;;;;;6184881;23;20013;-67
2024/01/04 08:48:17;;;;;;;8.27;3.47;;;;;;;;;;6185024;23;20021;-67
2024/01/04 08:50:46;;;;;;;4.75;2.75;;;;;;;;;;6184986;23;20470;-67
2024/01/04 08:53:20;;;;;;;6.45;3.13;;;;;;;;;;6184715;23;20021;-66
2024/01/04 08:55:51;;;;;;;7.68;4.32;;;;;;;;;;6184876;23;20040;-66
2024/01/04 08:58:18;;;;;;;11.45;4.38;;;;;;;;;;6184802;23;20017;-67
2024/01/04 09:00:46;;;;;;;6.43;4.57;;;;;;;;;;6184858;23;20088;-67
2024/01/04 09:03:15;;;;;;;6.78;3.10;;;;;;;;;;6185027;23;20051;-67
2024/01/04 09:05:44;;;;;;;6.80;3.50;;;;;;;;;;6184843;23;20059;-66
2024/01/04 09:08:12;;;;;;;4.57;3.15;;;;;;;;;;6184669;23;20017;-67
2024/01/04 09:10:40;;;;;;;4.50;3.30;;;;;;;;;;6184577;23;20016;-67
2024/01/04 09:13:08;;;;;;;7.22;3.65;;;;;;;;;;6184711;23;20017;-66
2024/01/04 09:15:35;;;;;;;6.32;3.20;;;;;;;;;;6183207;23;20020;-66
2024/01/04 09:18:03;;;;;;;7.60;4.07;;;;;;;;;;6184512;23;20029;-67
2024/01/04 09:20:30;;;;;;;7.90;4.95;;;;;;;;;;6185515;23;20039;-67
2024/01/04 09:22:58;;;;;;;6.07;2.88;;;;;;;;;;6186505;23;20013;-67
2024/01/04 09:25:26;;;;;;;4.10;2.53;;;;;;;;;;6186431;23;20321;-67
2024/01/04 09:27:56;;;;;;;6.47;3.42;;;;;;;;;;6184626;23;20020;-67
2024/01/04 09:30:23;;;;;;;4.80;2.60;;;;;;;;;;6186780;23;20093;-67
2024/01/04 09:32:51;;;;;;;4.65;3.28;;;;;;;;;;6186324;23;20055;-67
2024/01/04 09:35:22;;;;;;;3.83;2.35;;;;;;;;;;6186606;23;20266;-67
2024/01/04 09:37:50;;;;;;;6.80;2.60;;;;;;;;;;6186967;23;20017;-67
2024/01/04 09:40:21;;;;;;;4.57;2.65;;;;;;;;;;6186552;23;20325;-67
2024/01/04 09:42:51;;;;;;;4.95;2.67;;;;;;;;;;6186277;23;20013;-67
2024/01/04 09:45:21;;;;;;;6.13;2.72;;;;;;;;;;6186291;23;20017;-67
2024/01/04 09:47:56;;;;;;;5.70;2.72;;;;;;;;;;6186295;23;20092;-66
2024/01/04 09:50:24;;;;;;;;;;;;;;;;;;6186861;23;20377;-66
2024/01/04 09:52:56;;;;;;;8.35;4.45;;;;;;;;;;6186373;23;19916;-66
2024/01/04 09:55:24;;;;;;;7.07;4.07;;;;;;;;;;6186171;23;20025;-66
2024/01/04 09:57:52;;;;;;;6.32;3.13;;;;;;;;;;6186194;23;20021;-67
2024/01/04 10:00:19;;;;;;;7.97;3.15;;;;;;;;;;6185205;23;20013;-67
2024/01/04 10:02:49;;;;;;;7.50;3.88;;;;;;;;;;6185932;23;20372;-66
2024/01/04 10:05:17;;;;;;;6.57;4.68;;;;;;;;;;6186191;23;20021;-66
2024/01/04 10:07:52;;;;;;;11.05;8.52;;;;;;;;;;6186112;23;20096;-66
2024/01/04 10:10:21;;;;;;;10.05;6.68;;;;;;;;;;6186169;23;20021;-66
2024/01/04 10:12:49;;;;;;;5.72;4.03;;;;;;;;;;6185945;23;20017;-65
2024/01/04 10:15:17;;;;;;;4.60;3.00;;;;;;;;;;6184591;23;20017;-66
2024/01/04 10:17:46;;;;;;;5.00;2.72;;;;;;;;;;6184428;23;20025;-66
2024/01/04 10:20:14;;;;;;;6.10;3.40;;;;;;;;;;6186052;23;20013;-66
2024/01/04 10:22:43;;;;;;;5.43;2.83;;;;;;;;;;6185906;23;20028;-66
2024/01/04 10:25:12;;;;;;;6.28;2.63;;;;;;;;;;6186108;23;20048;-67
2024/01/04 10:27:40;;;;;;;5.93;2.95;;;;;;;;;;6186043;23;20023;-66
2024/01/04 10:30:07;;;;;;;4.65;2.50;;;;;;;;;;6185930;23;20021;-67
2024/01/04 10:32:36;;;;;;;7.65;2.50;;;;;;;;;;6185538;23;20083;-66
2024/01/04 10:35:06;;;;;;;5.03;2.85;;;;;;;;;;6185931;23;20017;-66
2024/01/04 10:37:34;;;;;;;8.38;2.95;;;;;;;;;;6185865;23;20084;-67
2024/01/04 10:40:03;;;;;;;3.55;2.25;;;;;;;;;;6186020;23;20088;-67
2024/01/04 10:42:32;;;;;;;5.55;2.60;;;;;;;;;;6185659;23;20021;-67
2024/01/04 10:45:00;;;;;;;5.55;2.67;;;;;;;;;;6185648;23;20021;-67
2024/01/04 10:47:29;;;;;;;5.35;2.88;;;;;;;;;;6186288;23;20017;-68
2024/01/04 10:50:00;;;;;;;5.43;3.50;;;;;;;;;;6185605;23;20019;-68
2024/01/04 10:52:31;;;;;;;13.07;9.70;;;;;;;;;;6185804;23;20076;-67
2024/01/04 10:55:00;;;;;;;7.47;5.38;;;;;;;;;;6185443;23;20040;-67
2024/01/04 10:57:31;;;;;;;6.18;4.13;;;;;;;;;;6185674;23;20094;-67
2024/01/04 11:00:01;;;;;;;6.53;3.53;;;;;;;;;;6185665;23;20017;-67
2024/01/04 11:02:30;;;;;;;21.55;11.38;;;;;;;;;;6185597;23;20368;-67
2024/01/04 11:04:57;;;;;;;15.07;9.10;;;;;;;;;;6185550;23;20028;-67
2024/01/04 11:07:26;;;;;;;4.55;3.15;;;;;;;;;;6185169;23;20021;-67
2024/01/04 11:09:55;;;;;;;4.78;3.22;;;;;;;;;;6185775;23;20044;-67
2024/01/04 11:12:25;;;;;;;6.07;3.00;;;;;;;;;;6184034;23;20013;-67
2024/01/04 11:14:53;;;;;;;7.32;3.47;;;;;;;;;;6185335;23;20013;-67
2024/01/04 11:17:39;;;;;;;3.92;2.60;;;;;;;;;;6185426;23;20066;-67
2024/01/04 11:20:08;;;;;;;5.28;2.60;;;;;;;;;;6183612;23;20024;-67
2024/01/04 11:22:54;;;;;;;4.72;2.60;;;;;;;;;;6186112;23;20095;-67
2024/01/04 11:25:29;;;;;;;5.10;3.10;;;;;;;;;;6185098;23;20017;-67
2024/01/04 11:27:56;;;;;;;;;;;;;;;;;;6184310;23;20083;-66
2024/01/04 11:30:24;;;;;;;7.38;4.03;;;;;;;;;;6184923;23;19919;-66
2024/01/04 11:32:53;;;;;;;6.68;3.17;;;;;;;;;;6184892;23;20017;-66
2024/01/04 11:35:21;;;;;;;7.70;2.78;;;;;;;;;;6184990;23;20025;-66
2024/01/04 11:37:52;;;;;;;4.82;2.83;;;;;;;;;;6185072;23;20081;-66
2024/01/04 11:40:29;;;;;;;9.68;4.53;;;;;;;;;;6185048;23;20321;-67
2024/01/04 11:42:57;;;;;;;10.25;8.00;;;;;;;;;;6184843;23;20021;-67
2024/01/04 11:45:25;;;;;;;7.45;5.05;;;;;;;;;;6184887;23;20017;-66
2024/01/04 11:47:53;;;;;;;9.80;5.68;;;;;;;;;;6183410;23;20024;-68
2024/01/04 11:50:30;;;;;;;10.52;7.45;;;;;;;;;;6185073;23;20017;-67
2024/01/04 11:53:08;;;;;;;11.15;7.10;;;;;;;;;;6184916;23;20080;-66
2024/01/04 11:55:36;;;;;;;10.40;5.47;;;;;;;;;;6184861;23;20029;-67
2024/01/04 11:58:04;;;;;;;12.43;5.60;;;;;;;;;;6185151;23;20024;-67
2024/01/04 12:00:33;;;;;;;9.10;4.10;;;;;;;;;;6185368;23;20092;-67
2024/01/04 12:03:01;;;;;;;7.18;3.88;;;;;;;;;;6183409;23;20017;-68
2024/01/04 12:05:29;;;;;;;7.55;3.67;;;;;;;;;;6184956;23;20027;-66
2024/01/04 12:07:56;;;;;;;7.13;3.60;;;;;;;;;;6185049;23;20110;-66
2024/01/04 12:10:24;;;;;;;6.35;3.75;;;;;;;;;;6184791;23;20027;-67
2024/01/04 12:12:52;;;;;;;10.57;3.67;;;;;;;;;;6184835;23;20431;-67
2024/01/04 12:15:20;;;;;;;8.98;4.85;;;;;;;;;;6185045;23;20450;-67
2024/01/04 12:17:48;;;;;;;6.68;3.67;;;;;;;;;;6185101;23;20044;-67
2024/01/04 12:20:16;;;;;;;7.53;3.30;;;;;;;;;;6185421;23;20043;-67
2024/01/04 12:22:43;;;;;;;8.02;3.75;;;;;;;;;;6185272;23;20013;-67
2024/01/04 12:25:11;;;;;;;9.73;5.18;;;;;;;;;;6185017;23;20378;-67
2024/01/04 12:27:39;;;;;;;11.48;4.93;;;;;;;;;;6184923;23;20013;-67
2024/01/04 12:30:08;;;;;;;8.65;3.88;;;;;;;;;;6183422;23;20025;-67
2024/01/04 12:32:36;;;;;;;4.88;3.00;;;;;;;;;;6183569;23;20023;-67
2024/01/04 12:35:05;;;;;;;6.32;2.90;;;;;;;;;;6185241;23;20052;-67
2024/01/04 12:37:33;;;;;;;4.22;2.90;;;;;;;;;;6184497;23;20466;-66
2024/01/04 12:40:07;;;;;;;9.82;4.47;;;;;;;;;;6184558;23;20017;-66
2024/01/04 12:42:35;;;;;;;11.57;5.63;;;;;;;;;;6184793;23;20424;-66
2024/01/04 12:45:03;;;;;;;11.52;6.20;;;;;;;;;;6184737;23;20021;-67
2024/01/04 12:47:32;;;;;;;11.60;5.75;;;;;;;;;;6184643;23;20096;-67
2024/01/04 12:50:00;;;;;;;13.40;7.35;;;;;;;;;;6183253;23;20028;-67
2024/01/04 12:52:28;;;;;;;13.35;7.68;;;;;;;;;;6184736;23;20019;-67
2024/01/04 12:54:56;;;;;;;20.10;12.95;;;;;;;;;;6185292;23;20017;-67
2024/01/04 12:57:24;;;;;;;30.17;15.40;;;;;;;;;;6186833;23;20047;-67
2024/01/04 12:59:52;;;;;;;27.63;14.88;;;;;;;;;;6186918;23;20017;-67
2024/01/04 13:02:20;;;;;;;17.95;8.18;;;;;;;;;;6187014;23;20024;-68
2024/01/04 13:04:47;;;;;;;10.48;5.93;;;;;;;;;;6186839;23;20021;-68
2024/01/04 13:07:15;;;;;;;13.45;5.90;;;;;;;;;;6184954;23;20440;-67
2024/01/04 13:09:43;;;;;;;12.18;6.60;;;;;;;;;;6187083;23;20043;-67
2024/01/04 13:12:10;;;;;;;16.52;8.73;;;;;;;;;;6186486;23;20075;-67
2024/01/04 13:14:38;;;;;;;13.10;7.25;;;;;;;;;;6186482;23;20024;-67
2024/01/04 13:17:06;;;;;;;16.63;7.72;;;;;;;;;;6186540;23;20092;-67
2024/01/04 13:19:33;;;;;;;12.50;6.35;;;;;;;;;;6186744;23;20447;-67
2024/01/04 13:22:01;;;;;;;10.38;5.38;;;;;;;;;;6186861;23;20335;-67
2024/01/04 13:24:29;;;;;;;9.63;5.38;;;;;;;;;;6186510;23;20021;-67
2024/01/04 13:26:57;;;;;;;9.63;5.72;;;;;;;;;;6186508;23;20253;-67
2024/01/04 13:29:26;;;;;;;8.55;4.60;;;;;;;;;;6186368;23;20025;-65
2024/01/04 13:31:53;;;;;;;8.40;4.90;;;;;;;;;;6185415;23;20013;-67
2024/01/04 13:34:21;;;;;;;8.65;4.40;;;;;;;;;;6186487;23;20084;-67
2024/01/04 13:36:49;;;;;;;8.02;4.75;;;;;;;;;;6185995;23;20010;-67
2024/01/04 13:39:16;;;;;;;9.32;5.00;;;;;;;;;;6186346;23;20088;-67
2024/01/04 13:41:44;;;;;;;9.68;4.95;;;;;;;;;;6184989;23;20013;-67
2024/01/04 13:44:13;;;;;;;10.90;5.30;;;;;;;;;;6186180;23;20013;-67
2024/01/04 13:46:41;;;;;;;9.45;5.45;;;;;;;;;;6186338;23;20253;-67
2024/01/04 13:49:08;;;;;;;12.63;7.05;;;;;;;;;;6186281;23;20012;-67
2024/01/04 13:51:36;;;;;;;10.50;6.53;;;;;;;;;;6186411;23;20459;-68
2024/01/04 13:54:04;;;;;;;14.85;6.35;;;;;;;;;;6186161;23;20021;-67
2024/01/04 13:56:32;;;;;;;11.30;6.38;;;;;;;;;;6186099;23;20379;-67
2024/01/04 13:58:59;;;;;;;12.02;6.88;;;;;;;;;;6186080;23;20046;-67
2024/01/04 14:01:27;;;;;;;13.60;7.07;;;;;;;;;;6186327;23;20432;-67
2024/01/04 14:03:54;;;;;;;11.05;5.75;;;;;;;;;;6186163;23;20017;-67
2024/01/04 14:06:22;;;;;;;11.10;6.03;;;;;;;;;;6185949;23;20097;-67
2024/01/04 14:08:54;;;;;;;10.48;6.05;;;;;;;;;;6185955;23;20088;-66
2024/01/04 14:11:22;;;;;;;9.95;5.88;;;;;;;;;;6186312;23;20040;-66
2024/01/04 14:13:51;;;;;;;9.73;5.68;;;;;;;;;;6186059;23;20092;-66
2024/01/04 14:18:22;;;;;;;10.38;5.57;;;;;;;;;;5010018;28;20753;-65
2024/01/04 14:20:51;;;;;;;10.77;5.45;;;;;;;;;;5010085;28;20042;-66
2024/01/04 14:23:19;;;;;;;10.00;5.95;;;;;;;;;;5010066;28;20125;-67
2024/01/04 14:25:46;;;;;;;9.88;5.65;;;;;;;;;;5010156;28;20039;-67
2024/01/04 14:28:15;;;;;;;11.55;5.93;;;;;;;;;;4992518;28;20069;-66
2024/01/04 14:30:43;;;;;;;9.40;5.63;;;;;;;;;;5010075;28;20057;-65
2024/01/04 14:33:11;;;;;;;9.65;5.55;;;;;;;;;;4992599;28;20393;-65
2024/01/04 14:35:53;;;;;;;10.30;5.05;;;;;;;;;;4994308;28;20381;-65
2024/01/04 14:38:20;;;;;;;10.38;5.10;;;;;;;;;;5009885;28;20069;-66
2024/01/04 14:40:48;;;;;;;12.95;5.70;;;;;;;;;;5009869;28;20038;-66
2024/01/04 14:43:16;;;;;;;12.50;6.10;;;;;;;;;;5009014;28;20053;-65
2024/01/04 14:45:43;;;;;;;14.95;6.78;;;;;;;;;;5009533;28;20034;-65